< Typhoon 197136 1972 Season Typhoon 197202 >
Typhoon 197201 (KIT)
General InformationTrack Information on Google Maps || Disaster Info.ResourceGoogle EarthGE AnimationAtom FeedGeoJSON
Detalied Best Track (Time Zone = UTC)
Year Month Day Hour Lat. Long. Pressure (hPa) Wind (kt) Class Image Chart
1972 1 4 00 10.0 142.3 1006 0 2 -- Chart
1972 1 4 06 9.0 141.0 1002 0 2 -- Chart
1972 1 4 12 9.4 140.0 1000 0 2 -- Chart
1972 1 4 18 9.4 139.0 1000 0 2 -- Chart
1972 1 5 00 9.2 138.0 1000 0 2 -- Chart
1972 1 5 06 9.4 136.7 996 0 2 -- Chart
1972 1 5 12 9.8 135.5 992 0 2 -- Chart
1972 1 5 18 10.0 134.0 992 0 2 -- Chart
1972 1 6 00 10.3 132.9 990 0 9 -- Chart
1972 1 6 06 10.7 132.0 985 0 9 -- Chart
1972 1 6 12 11.1 130.8 980 0 9 -- Chart
1972 1 6 18 11.2 129.6 960 0 9 -- Chart
1972 1 7 00 11.6 128.2 940 0 9 -- Chart
1972 1 7 06 11.7 127.0 940 0 9 -- Chart
1972 1 7 12 11.4 126.1 960 0 9 -- Chart
1972 1 7 18 11.0 125.5 975 0 9 -- Chart
1972 1 8 00 10.6 125.0 985 0 9 -- Chart
1972 1 8 06 10.8 124.4 990 0 9 -- Chart
1972 1 8 12 11.2 124.3 990 0 9 -- Chart
1972 1 8 18 11.6 124.2 992 0 9 -- Chart
1972 1 9 00 12.0 124.0 996 0 2 -- Chart
1972 1 9 06 13.0 124.0 996 0 2 -- Chart
1972 1 9 12 14.5 123.5 998 0 2 -- Chart
1972 1 9 18 14.8 124.2 1002 0 2 -- Chart
1972 1 10 00 15.0 125.0 1004 0 2 -- Chart
1972 1 10 06 15.1 125.8 1004 0 2 -- Chart
1972 1 10 12 15.1 126.5 1004 0 2 -- Chart
1972 1 10 18 15.0 127.3 1004 0 2 -- Chart
1972 1 11 00 15.0 128.0 1004 0 2 -- Chart
Japan Meteorological Agency Best Track Data | Correction Date : 1989-06-01
< Typhoon 197136 1972 Season Typhoon 197202 >

Help